Time;durP1;ratioP1;P1;durP2;ratioP2;P2;SDS_P1;SDS_P2;PMS_P1;PMS_P2;Temp;Humidity;BMP_temperature;BMP_pressure;BME280_temperature;BME280_humidity;BME280_pressure;Samples;Min_cycle;Max_cycle;Signal;HPM_P1;HPM_P2
2023/09/11 00:00:21;;;;;;;2.38;1.98;;;;;;;19.39;89.06;98538.34;4134856;28;20205;-86
2023/09/11 00:02:23;;;;;;;3.10;2.08;;;;;;;19.29;89.42;98532.16;4122110;28;20638;-84
2023/09/11 00:04:27;;;;;;;3.42;1.60;;;;;;;19.20;90.38;98534.00;4140908;28;20271;-84
2023/09/11 00:06:29;;;;;;;3.25;1.67;;;;;;;19.18;90.53;98527.91;4135875;28;20205;-84
2023/09/11 00:08:31;;;;;;;1.65;1.55;;;;;;;19.14;90.66;98535.19;4169284;28;20235;-84
2023/09/11 00:10:35;;;;;;;2.00;1.80;;;;;;;19.09;91.04;98529.72;4138200;28;20290;-84
2023/09/11 00:12:37;;;;;;;1.45;1.23;;;;;;;19.01;91.48;98522.13;4169561;28;20211;-83
2023/09/11 00:14:39;;;;;;;1.88;1.50;;;;;;;19.01;91.32;98520.19;4141561;28;20735;-85
2023/09/11 00:16:41;;;;;;;5.75;1.85;;;;;;;18.97;91.25;98516.34;4136440;28;20210;-84
2023/09/11 00:18:43;;;;;;;2.88;1.90;;;;;;;18.87;91.61;98518.47;4152433;28;20265;-84
2023/09/11 00:20:45;;;;;;;2.63;1.85;;;;;;;18.86;91.72;98522.38;4123182;28;20320;-84
2023/09/11 00:22:48;;;;;;;2.25;1.98;;;;;;;18.86;91.43;98516.84;4120363;28;20727;-85
2023/09/11 00:24:50;;;;;;;1.55;1.35;;;;;;;18.87;91.65;98513.78;4136174;28;20233;-84
2023/09/11 00:26:53;;;;;;;2.35;1.27;;;;;;;18.83;91.90;98518.25;4121362;28;20298;-84
2023/09/11 00:28:55;;;;;;;1.63;1.00;;;;;;;18.75;91.64;98520.91;4123404;28;20206;-85
2023/09/11 00:30:59;;;;;;;2.13;2.03;;;;;;;18.72;91.58;98516.78;4149604;28;20253;-85
2023/09/11 00:33:01;;;;;;;2.45;1.95;;;;;;;18.75;91.53;98515.34;4136608;28;20248;-84
2023/09/11 00:35:03;;;;;;;2.75;2.50;;;;;;;18.77;91.38;98513.13;4137150;28;20439;-85
2023/09/11 00:37:05;;;;;;;1.90;1.80;;;;;;;18.78;91.17;98515.56;4134565;28;20852;-84
2023/09/11 00:39:06;;;;;;;1.58;1.45;;;;;;;18.74;90.76;98503.44;4153531;28;20762;-85
2023/09/11 00:41:08;;;;;;;4.75;1.77;;;;;;;18.76;90.85;98511.44;4139643;28;20221;-85
2023/09/11 00:43:09;;;;;;;7.05;1.45;;;;;;;18.77;90.87;98507.56;4134983;28;20229;-85
2023/09/11 00:45:11;;;;;;;7.75;1.30;;;;;;;18.78;90.76;98504.47;4117939;28;20336;-84
2023/09/11 00:47:13;;;;;;;1.95;1.48;;;;;;;18.79;90.16;98511.66;4135075;28;20632;-84
2023/09/11 00:49:15;;;;;;;1.73;1.63;;;;;;;18.76;90.24;98505.91;4136501;28;20289;-84
2023/09/11 00:51:17;;;;;;;1.42;1.33;;;;;;;18.70;90.15;98507.94;4151926;28;20224;-85
2023/09/11 00:53:19;;;;;;;1.60;1.23;;;;;;;18.68;90.48;98503.81;4135109;28;20212;-83
2023/09/11 00:55:21;;;;;;;1.75;1.35;;;;;;;18.53;91.57;98496.56;4168962;28;20208;-83
2023/09/11 00:57:23;;;;;;;2.88;0.93;;;;;;;18.39;90.99;98505.97;4154559;28;20284;-84
2023/09/11 00:59:29;;;;;;;1.27;1.17;;;;;;;18.41;92.00;98500.94;4134056;28;20205;-85
2023/09/11 01:01:31;;;;;;;1.60;1.50;;;;;;;18.36;92.25;98499.06;4131211;28;20236;-85
2023/09/11 01:03:33;;;;;;;4.68;1.25;;;;;;;18.37;92.57;98505.41;4133661;28;20553;-84
2023/09/11 01:05:36;;;;;;;10.57;1.88;;;;;;;18.43;92.47;98502.28;4150292;28;20202;-82
2023/09/11 01:07:37;;;;;;;1.58;1.38;;;;;;;18.40;92.25;98502.06;4153020;28;20219;-86
2023/09/11 01:09:40;;;;;;;2.22;1.77;;;;;;;18.43;92.00;98504.22;4135835;28;20244;-84
2023/09/11 01:11:41;;;;;;;2.15;1.75;;;;;;;18.39;92.09;98494.88;4149848;28;20698;-84
2023/09/11 01:13:43;;;;;;;1.50;1.10;;;;;;;18.36;92.40;98495.47;4112688;28;20302;-84
2023/09/11 01:16:09;;;;;;;3.17;2.25;;;;;;;18.29;92.65;98495.00;4138313;28;20206;-85
2023/09/11 01:18:18;;;;;;;1.35;1.25;;;;;;;18.28;92.88;98498.88;4137058;28;20225;-83
2023/09/11 01:20:42;;;;;;;1.30;1.20;;;;;;;18.18;92.95;98499.84;4119712;28;20205;-83
2023/09/11 01:23:02;;;;;;;1.48;1.38;;;;;;;18.21;93.08;98498.44;4152539;28;20319;-84
2023/09/11 01:25:18;;;;;;;2.33;1.55;;;;;;;18.21;92.80;98498.44;4137795;28;20211;-85
2023/09/11 01:27:41;;;;;;;1.63;1.52;;;;;;;18.11;93.49;98504.16;4150655;28;20233;-85
2023/09/11 01:29:44;;;;;;;8.07;1.48;;;;;;;18.03;93.28;98496.47;4138027;28;20230;-84
2023/09/11 01:31:47;;;;;;;11.23;2.13;;;;;;;18.05;93.81;98499.81;4135874;28;20304;-85
2023/09/11 01:33:55;;;;;;;1.77;1.58;;;;;;;18.04;94.03;98493.41;4151439;28;20249;-84
2023/09/11 01:35:56;;;;;;;1.88;1.55;;;;;;;17.99;94.03;98499.03;4136113;28;20239;-84
2023/09/11 01:37:58;;;;;;;4.75;2.75;;;;;;;18.00;93.90;98486.00;4137509;28;20325;-85
2023/09/11 01:40:00;;;;;;;1.70;1.58;;;;;;;17.96;93.91;98491.31;4123299;28;20206;-84
2023/09/11 01:42:07;;;;;;;1.75;1.55;;;;;;;18.04;94.02;98495.38;4120122;28;20244;-85
2023/09/11 01:44:15;;;;;;;3.45;1.92;;;;;;;18.05;93.81;98494.25;4167038;28;20259;-85
2023/09/11 01:46:17;;;;;;;1.67;1.27;;;;;;;17.95;93.87;98494.38;4168481;28;20207;-85
2023/09/11 01:48:20;;;;;;;2.13;1.63;;;;;;;17.89;93.91;98490.03;4151268;28;20272;-85
2023/09/11 01:50:23;;;;;;;1.30;1.15;;;;;;;17.92;94.40;98495.00;4135182;28;20580;-85
2023/09/11 01:52:32;;;;;;;7.30;1.90;;;;;;;17.94;94.43;98489.97;4105039;28;20218;-84
2023/09/11 01:54:34;;;;;;;1.67;1.48;;;;;;;17.91;94.08;98493.34;4154196;28;20316;-85
2023/09/11 01:56:36;;;;;;;1.13;1.02;;;;;;;17.97;94.11;98492.13;4118898;28;20198;-84
2023/09/11 01:58:38;;;;;;;1.42;1.20;;;;;;;17.87;93.80;98493.13;4135445;28;20205;-84
2023/09/11 02:00:40;;;;;;;2.58;1.42;;;;;;;17.81;94.07;98488.78;4152021;28;20264;-83
2023/09/11 02:02:41;;;;;;;3.50;1.63;;;;;;;17.81;94.33;98493.47;4102320;28;1112017;-85
2023/09/11 02:04:43;;;;;;;2.00;1.88;;;;;;;17.85;93.99;98495.34;4123110;28;20278;-85
2023/09/11 02:06:44;;;;;;;1.05;1.05;;;;;;;17.83;93.89;98502.28;4134581;28;20243;-83
2023/09/11 02:08:46;;;;;;;2.05;1.88;;;;;;;17.85;93.87;98497.31;4135949;28;20623;-84
2023/09/11 02:13:10;;;;;;;2.42;1.80;;;;;;;17.80;93.26;98497.38;4136279;28;20738;-85
2023/09/11 02:15:11;;;;;;;2.00;1.90;;;;;;;17.80;93.72;98503.72;4166500;28;21053;-83
2023/09/11 02:17:13;;;;;;;2.00;1.67;;;;;;;17.69;93.21;98493.06;4148333;28;20208;-83
2023/09/11 02:19:17;;;;;;;1.75;1.50;;;;;;;17.70;92.98;98486.41;4116846;28;20217;-84
2023/09/11 02:21:19;;;;;;;2.38;1.95;;;;;;;17.69;93.24;98490.31;4121736;28;20281;-83
2023/09/11 02:23:22;;;;;;;1.73;1.63;;;;;;;17.71;92.63;98485.31;4150220;28;20228;-84
2023/09/11 02:25:24;;;;;;;2.13;1.10;;;;;;;17.69;93.11;98495.84;4120592;28;20214;-83
2023/09/11 02:27:25;;;;;;;1.23;0.98;;;;;;;17.69;92.61;98487.53;4151184;28;20205;-84
2023/09/11 02:29:27;;;;;;;6.95;2.22;;;;;;;17.63;92.35;98491.47;4152869;28;20216;-84
2023/09/11 02:31:28;;;;;;;1.77;1.08;;;;;;;17.55;92.68;98478.31;4123625;28;20230;-84
2023/09/11 02:33:30;;;;;;;1.75;1.17;;;;;;;17.50;92.83;98483.91;4133338;28;20245;-85
2023/09/11 02:35:32;;;;;;;2.03;1.83;;;;;;;17.44;93.19;98487.88;4137542;28;20592;-83
2023/09/11 02:37:33;;;;;;;1.65;1.30;;;;;;;17.33;93.55;98475.22;4118133;28;20201;-85
2023/09/11 02:39:35;;;;;;;1.63;1.52;;;;;;;17.31;94.12;98477.47;4121164;28;20235;-85
2023/09/11 02:41:37;;;;;;;1.52;1.20;;;;;;;17.29;94.23;98485.22;4167316;28;20651;-85
2023/09/11 02:43:39;;;;;;;2.85;1.55;;;;;;;17.26;94.25;98480.28;4131058;28;20756;-84
2023/09/11 02:45:44;;;;;;;2.38;2.13;;;;;;;17.29;94.39;98485.22;4123417;28;20268;-84
2023/09/11 02:47:51;;;;;;;1.85;1.73;;;;;;;17.26;93.87;98483.06;4166591;28;20415;-84
2023/09/11 02:49:52;;;;;;;2.72;1.52;;;;;;;17.22;94.23;98485.59;4135631;28;20220;-85
2023/09/11 02:51:55;;;;;;;1.75;1.65;;;;;;;17.20;94.39;98481.47;4136630;28;20639;-84
2023/09/11 02:53:56;;;;;;;1.77;1.67;;;;;;;17.20;94.34;98475.94;4139966;28;20201;-84
2023/09/11 02:55:58;;;;;;;7.57;1.90;;;;;;;17.24;94.13;98488.03;4134619;28;20209;-85
2023/09/11 02:58:00;;;;;;;2.25;1.70;;;;;;;17.25;94.16;98478.66;4150621;28;20205;-84
2023/09/11 03:00:06;;;;;;;2.50;1.98;;;;;;;17.20;94.09;98473.16;4152050;28;20233;-85
2023/09/11 03:02:09;;;;;;;1.15;1.00;;;;;;;17.16;93.75;98474.84;4148663;28;20270;-84
2023/09/11 03:04:10;;;;;;;2.53;1.73;;;;;;;17.09;94.26;98472.47;4119735;28;20692;-85
2023/09/11 03:06:15;;;;;;;13.20;2.85;;;;;;;17.13;94.58;98469.94;4150557;28;20212;-84
2023/09/11 03:08:20;;;;;;;2.15;1.48;;;;;;;17.03;94.45;98475.56;4149606;28;20239;-84
2023/09/11 03:10:22;;;;;;;1.92;1.38;;;;;;;17.02;95.29;98468.38;4115172;28;20210;-84
2023/09/11 03:12:24;;;;;;;3.42;2.25;;;;;;;17.04;95.74;98471.66;4118448;28;20280;-84
2023/09/11 03:14:25;;;;;;;2.50;1.42;;;;;;;16.88;97.61;98472.94;4138322;28;20214;-83
2023/09/11 03:16:27;;;;;;;3.20;1.67;;;;;;;16.95;97.62;98472.63;4129188;28;20214;-84
2023/09/11 03:18:29;;;;;;;3.33;1.40;;;;;;;17.05;96.96;98459.50;4129164;28;20206;-84
2023/09/11 03:20:30;;;;;;;2.03;1.80;;;;;;;17.02;97.09;98479.44;4150316;28;20255;-84
2023/09/11 03:22:32;;;;;;;1.63;1.25;;;;;;;16.99;96.50;98475.31;4127586;28;20226;-83
2023/09/11 03:24:33;;;;;;;1.65;1.08;;;;;;;16.96;96.43;98475.06;4119852;28;20734;-83
2023/09/11 03:26:36;;;;;;;1.40;1.33;;;;;;;16.98;96.35;98473.66;4164668;28;20212;-84
2023/09/11 03:28:38;;;;;;;1.83;1.70;;;;;;;16.95;95.99;98473.44;4149875;28;20263;-84
2023/09/11 03:30:40;;;;;;;1.40;1.20;;;;;;;16.98;96.05;98472.88;4132689;28;20872;-84
2023/09/11 03:32:41;;;;;;;2.50;2.30;;;;;;;17.05;95.81;98479.69;4119901;28;20230;-84
2023/09/11 03:34:43;;;;;;;1.30;1.20;;;;;;;17.06;95.27;98474.97;4135246;28;20201;-85
2023/09/11 03:36:45;;;;;;;1.15;1.05;;;;;;;17.02;94.75;98473.91;4136167;28;20205;-85
2023/09/11 03:38:47;;;;;;;4.22;1.20;;;;;;;16.98;94.68;98478.41;4139404;28;20229;-85
2023/09/11 03:40:48;;;;;;;1.67;1.45;;;;;;;17.00;94.65;98467.84;4122850;28;20357;-85
2023/09/11 03:42:50;;;;;;;8.23;1.60;;;;;;;16.97;94.36;98465.66;4119645;28;20226;-84
2023/09/11 03:44:51;;;;;;;10.00;1.52;;;;;;;16.98;94.41;98467.34;4152365;28;20217;-85
2023/09/11 03:46:53;;;;;;;11.60;2.03;;;;;;;16.99;94.24;98463.44;4135002;28;20213;-85
2023/09/11 03:48:55;;;;;;;1.33;1.15;;;;;;;16.96;94.20;98464.00;4149169;28;20209;-85
2023/09/11 03:50:56;;;;;;;2.30;1.27;;;;;;;16.92;94.00;98461.00;4152047;28;20220;-84
2023/09/11 03:52:58;;;;;;;2.10;1.90;;;;;;;16.91;93.90;98461.31;4153185;28;20213;-85
2023/09/11 03:54:59;;;;;;;2.97;1.45;;;;;;;16.89;93.93;98458.00;4148548;28;20224;-86
2023/09/11 03:57:01;;;;;;;2.45;1.80;;;;;;;16.82;94.08;98451.19;4123393;28;20752;-87
2023/09/11 03:59:03;;;;;;;1.58;1.48;;;;;;;16.76;94.32;98455.13;4139259;28;20816;-85
2023/09/11 04:01:05;;;;;;;1.63;1.52;;;;;;;16.71;94.22;98450.47;4138687;28;20766;-86
2023/09/11 04:03:07;;;;;;;2.10;1.70;;;;;;;16.73;94.53;98453.75;4136955;28;20283;-85
2023/09/11 04:05:09;;;;;;;1.63;1.50;;;;;;;16.76;94.58;98458.69;4138563;28;20213;-85
2023/09/11 04:07:16;;;;;;;1.65;1.42;;;;;;;16.68;94.17;98453.00;4138753;28;20209;-86
2023/09/11 04:09:18;;;;;;;14.23;1.02;;;;;;;16.62;94.57;98445.88;4170607;28;20208;-86
2023/09/11 04:11:22;;;;;;;6.93;1.33;;;;;;;16.58;94.67;98444.78;4122004;28;20222;-85
2023/09/11 04:13:24;;;;;;;1.45;1.35;;;;;;;16.59;95.31;98450.03;4149766;28;20205;-85
2023/09/11 04:15:26;;;;;;;1.38;1.20;;;;;;;16.57;95.20;98451.44;4170228;28;20224;-85
2023/09/11 04:17:27;;;;;;;0.98;0.93;;;;;;;16.58;95.07;98440.09;4153533;28;20205;-85
2023/09/11 04:19:29;;;;;;;2.80;1.70;;;;;;;16.58;94.87;98445.63;4142081;28;20206;-87
2023/09/11 04:21:30;;;;;;;3.25;1.17;;;;;;;16.62;94.62;98440.34;4124048;28;20218;-85
2023/09/11 04:23:32;;;;;;;1.20;0.93;;;;;;;16.54;94.60;98443.69;4130008;28;20269;-85
2023/09/11 04:25:34;;;;;;;1.75;1.60;;;;;;;16.55;94.69;98446.19;4146202;28;20684;-85
2023/09/11 04:27:36;;;;;;;5.20;2.75;;;;;;;16.52;94.78;98441.25;4142318;28;20213;-85
2023/09/11 04:29:38;;;;;;;4.43;2.00;;;;;;;16.55;94.40;98443.41;4130386;28;20245;-85
2023/09/11 04:31:42;;;;;;;1.90;1.20;;;;;;;16.57;94.91;98449.47;4181877;28;20330;-84
2023/09/11 04:33:48;;;;;;;2.95;1.92;;;;;;;16.55;94.92;98446.19;4144411;28;20207;-85
2023/09/11 04:35:51;;;;;;;4.88;1.42;;;;;;;16.55;94.64;98445.38;4117897;28;20203;-86
2023/09/11 04:37:53;;;;;;;1.52;1.42;;;;;;;16.53;94.56;98445.66;4138985;28;22372;-87
2023/09/11 04:40:16;;;;;;;2.75;1.42;;;;;;;16.48;94.07;98439.34;4171501;28;20678;-87
2023/09/11 04:42:22;;;;;;;5.25;1.33;;;;;;;16.41;94.91;98445.19;4169295;28;20627;-87
2023/09/11 04:44:40;;;;;;;1.20;1.10;;;;;;;16.35;95.51;98440.81;4136853;28;20215;-86
2023/09/11 04:46:51;;;;;;;1.85;1.35;;;;;;;16.24;95.81;98438.41;4140340;28;20333;-87
2023/09/11 04:49:08;;;;;;;1.77;1.65;;;;;;;16.18;96.65;98439.56;4141961;28;20204;-88
2023/09/11 04:51:27;;;;;;;8.32;2.85;;;;;;;16.15;97.08;98446.47;4116223;28;20226;-86
2023/09/11 04:54:06;;;;;;;1.38;1.27;;;;;;;16.18;97.21;98445.94;4168518;28;20212;-87
2023/09/11 04:56:09;;;;;;;1.50;1.40;;;;;;;16.19;97.81;98439.28;4155881;28;20204;-87
2023/09/11 04:58:18;;;;;;;1.23;1.13;;;;;;;16.09;97.74;98435.78;4141461;28;20213;-86
2023/09/11 05:00:20;;;;;;;5.60;2.60;;;;;;;16.11;97.79;98439.91;4125335;28;20205;-86
2023/09/11 05:02:24;;;;;;;2.33;2.10;;;;;;;16.16;97.53;98437.09;4136389;28;20268;-87
2023/09/11 05:04:26;;;;;;;5.63;2.05;;;;;;;16.17;97.54;98433.22;4134071;28;20797;-87
2023/09/11 05:06:28;;;;;;;2.17;1.83;;;;;;;16.19;97.21;98441.22;4135268;28;20332;-87
2023/09/11 05:08:42;;;;;;;1.70;1.52;;;;;;;16.19;97.41;98442.03;4119030;28;20210;-87
2023/09/11 05:11:03;;;;;;;6.53;1.85;;;;;;;16.20;97.73;98440.94;4117823;28;20256;-85
2023/09/11 05:13:05;;;;;;;8.25;1.83;;;;;;;16.18;97.24;98445.94;4144022;28;20970;-87
2023/09/11 05:15:07;;;;;;;9.00;1.85;;;;;;;16.19;97.62;98450.34;4166290;28;20200;-87
2023/09/11 05:17:09;;;;;;;1.45;1.17;;;;;;;16.21;97.61;98456.38;4134481;28;20198;-86
2023/09/11 05:19:10;;;;;;;1.35;1.25;;;;;;;16.24;97.23;98450.28;4122477;28;20680;-87
2023/09/11 05:21:12;;;;;;;1.60;1.50;;;;;;;16.23;96.92;98443.09;4140054;28;20229;-87
2023/09/11 05:23:14;;;;;;;1.63;1.30;;;;;;;16.22;96.94;98449.75;4113187;28;20928;-87
2023/09/11 05:25:16;;;;;;;2.97;1.15;;;;;;;16.23;96.88;98459.66;4117788;28;20215;-87
2023/09/11 05:27:17;;;;;;;3.78;1.50;;;;;;;16.26;96.89;98447.22;4137601;28;20237;-86
2023/09/11 05:29:25;;;;;;;1.40;1.15;;;;;;;16.20;96.75;98460.25;4152179;28;20262;-86
2023/09/11 05:31:31;;;;;;;6.63;1.70;;;;;;;16.18;97.03;98456.97;4142213;28;20275;-87
2023/09/11 05:33:35;;;;;;;1.75;1.60;;;;;;;16.17;97.47;98460.81;4136947;28;20229;-86
2023/09/11 05:35:38;;;;;;;1.30;1.20;;;;;;;16.14;97.74;98461.41;4168356;28;20237;-86
2023/09/11 05:37:40;;;;;;;1.75;1.38;;;;;;;16.14;98.00;98458.66;4124001;28;20986;-86
2023/09/11 05:39:42;;;;;;;1.63;1.33;;;;;;;16.16;98.08;98461.94;4137977;28;20209;-86
2023/09/11 05:41:44;;;;;;;1.40;1.30;;;;;;;16.17;98.57;98463.56;4152248;28;20247;-87
2023/09/11 05:43:48;;;;;;;1.75;1.42;;;;;;;16.19;99.08;98463.28;4152498;28;20710;-86
2023/09/11 05:46:00;;;;;;;1.30;1.20;;;;;;;16.25;99.25;98462.16;4137940;28;20715;-86
2023/09/11 05:48:02;;;;;;;18.25;1.80;;;;;;;16.31;100.00;98461.00;4119920;28;20571;-86
2023/09/11 05:50:05;;;;;;;2.50;1.88;;;;;;;16.39;100.00;98466.78;4134757;28;20719;-86
2023/09/11 05:52:06;;;;;;;1.73;1.38;;;;;;;16.47;100.00;98460.63;4118734;28;21081;-86
2023/09/11 05:54:08;;;;;;;1.88;1.35;;;;;;;16.55;100.00;98468.28;4149768;28;20202;-87
2023/09/11 05:56:10;;;;;;;1.45;1.35;;;;;;;16.59;100.00;98469.38;4134491;28;20250;-87
2023/09/11 05:58:11;;;;;;;2.10;1.73;;;;;;;16.57;100.00;98465.25;4136713;28;20217;-86
2023/09/11 06:00:16;;;;;;;1.77;1.67;;;;;;;16.66;100.00;98469.84;4118822;28;20293;-87
2023/09/11 06:02:17;;;;;;;2.95;1.23;;;;;;;17.04;100.00;98461.44;4137198;28;20237;-87
2023/09/11 06:04:21;;;;;;;15.88;2.30;;;;;;;17.25;100.00;98470.34;4123462;28;20281;-86
2023/09/11 06:06:24;;;;;;;1.73;1.63;;;;;;;17.28;99.34;98467.00;4138828;28;20986;-86
2023/09/11 06:08:26;;;;;;;1.23;1.17;;;;;;;17.12;97.63;98469.09;4132546;28;20210;-86
2023/09/11 06:10:28;;;;;;;1.25;1.15;;;;;;;17.11;98.20;98472.19;4149587;28;20210;-88
2023/09/11 06:12:30;;;;;;;7.00;2.35;;;;;;;17.29;97.49;98469.47;4117002;28;20524;-87
2023/09/11 06:14:31;;;;;;;1.67;1.23;;;;;;;17.47;96.58;98467.91;4120623;28;20623;-86
2023/09/11 06:16:33;;;;;;;7.03;2.30;;;;;;;17.82;98.75;98467.44;4136193;28;20209;-87
2023/09/11 06:18:34;;;;;;;4.00;1.77;;;;;;;18.01;96.73;98471.03;4134643;28;20344;-86
2023/09/11 06:20:37;;;;;;;1.52;1.10;;;;;;;18.11;94.70;98468.13;4114197;28;20696;-88
2023/09/11 06:22:39;;;;;;;1.48;1.40;;;;;;;18.73;96.61;98467.69;4111970;28;20775;-87
2023/09/11 06:24:40;;;;;;;3.03;2.28;;;;;;;18.99;92.65;98466.94;4129640;28;20260;-88
2023/09/11 06:26:42;;;;;;;1.30;1.17;;;;;;;19.56;90.58;98465.56;4136347;28;20229;-87
2023/09/11 06:28:44;;;;;;;2.95;1.80;;;;;;;20.18;86.76;98470.34;4141607;28;20205;-86
2023/09/11 06:30:55;;;;;;;2.00;1.88;;;;;;;19.63;82.37;98466.81;4123051;28;20202;-84
2023/09/11 06:32:56;;;;;;;1.48;1.38;;;;;;;20.02;87.89;98469.84;4154488;28;20212;-85
2023/09/11 06:34:59;;;;;;;3.92;1.23;;;;;;;20.34;84.59;98472.47;4153836;28;20211;-86
2023/09/11 06:37:00;;;;;;;1.65;1.30;;;;;;;20.65;83.80;98469.75;4141548;28;20232;-85
2023/09/11 06:39:05;;;;;;;1.80;1.42;;;;;;;21.12;81.23;98474.69;4125914;28;20244;-85
2023/09/11 06:41:07;;;;;;;2.95;2.38;;;;;;;21.27;78.25;98475.09;4143340;28;20320;-86
2023/09/11 06:43:09;;;;;;;2.42;2.22;;;;;;;21.61;77.06;98475.25;4134179;28;20214;-85
2023/09/11 06:45:10;;;;;;;1.45;1.00;;;;;;;21.50;75.93;98473.06;4171881;28;20714;-85
2023/09/11 06:47:12;;;;;;;1.48;1.38;;;;;;;22.08;76.20;98473.56;4126956;28;20281;-86
2023/09/11 06:49:14;;;;;;;4.00;2.63;;;;;;;21.90;76.91;98472.72;4152357;28;20211;-85
2023/09/11 06:51:16;;;;;;;2.58;2.35;;;;;;;21.91;76.66;98479.94;4152339;28;20320;-86
2023/09/11 06:53:28;;;;;;;2.70;2.38;;;;;;;22.03;76.17;98465.41;4138216;28;20199;-85
2023/09/11 06:55:29;;;;;;;1.65;1.55;;;;;;;21.96;75.82;98465.84;4138852;28;20212;-86
2023/09/11 06:57:31;;;;;;;1.95;1.45;;;;;;;22.57;73.96;98464.81;4153267;28;20204;-85
2023/09/11 06:59:34;;;;;;;9.80;4.07;;;;;;;23.13;71.98;98470.13;4127369;28;20877;-85
2023/09/11 07:01:39;;;;;;;29.42;4.20;;;;;;;22.89;72.94;98461.47;4137117;28;20236;-86
2023/09/11 07:03:41;;;;;;;2.45;1.75;;;;;;;23.14;70.71;98464.22;4129627;28;20229;-85
2023/09/11 07:05:43;;;;;;;6.68;1.45;;;;;;;23.37;68.86;98462.84;4126008;28;20721;-85
2023/09/11 07:07:45;;;;;;;1.80;1.50;;;;;;;23.36;69.85;98460.41;4155524;28;20248;-90
2023/09/11 07:09:48;;;;;;;1.85;1.42;;;;;;;23.46;67.79;98466.44;4124094;28;20747;-89
2023/09/11 07:11:51;;;;;;;9.02;3.33;;;;;;;23.60;70.37;98460.63;4175415;28;20228;-88
2023/09/11 07:13:54;;;;;;;5.57;1.83;;;;;;;23.82;68.28;98463.97;4154701;28;20201;-89
2023/09/11 07:15:58;;;;;;;3.70;1.67;;;;;;;23.45;69.09;98464.78;4151755;28;20204;-90
2023/09/11 07:18:03;;;;;;;1.73;1.63;;;;;;;24.15;66.90;98468.56;4135361;28;20283;-90
2023/09/11 07:20:06;;;;;;;3.97;1.30;;;;;;;24.03;68.57;98465.69;4128969;28;20240;-90
2023/09/11 07:22:10;;;;;;;14.43;1.50;;;;;;;24.55;63.94;98472.56;4132862;28;20230;-89
2023/09/11 07:24:12;;;;;;;3.97;1.63;;;;;;;25.07;64.15;98472.91;4129569;28;20699;-90
2023/09/11 07:26:27;;;;;;;2.10;1.73;;;;;;;25.25;62.11;98471.59;4157831;28;20682;-90
2023/09/11 07:28:29;;;;;;;1.63;1.17;;;;;;;25.57;61.33;98474.34;4147062;28;20205;-91
2023/09/11 07:30:31;;;;;;;3.28;1.63;;;;;;;25.63;62.81;98481.38;4162505;28;20274;-89
2023/09/11 07:32:33;;;;;;;3.38;2.17;;;;;;;25.51;62.25;98467.31;4147578;28;20663;-90
2023/09/11 07:34:35;;;;;;;1.35;1.25;;;;;;;25.26;64.30;98474.03;4132862;28;20263;-91
2023/09/11 07:36:37;;;;;;;1.40;1.25;;;;;;;25.44;61.91;98478.28;4158835;28;20212;-90
2023/09/11 07:38:44;;;;;;;1.95;1.80;;;;;;;25.60;61.59;98486.84;4128791;28;20205;-90
2023/09/11 07:40:56;;;;;;;2.97;1.08;;;;;;;24.88;63.96;98487.44;4145806;28;20677;-91
2023/09/11 07:42:57;;;;;;;2.70;2.42;;;;;;;25.31;63.17;98476.63;4161519;28;20207;-89
2023/09/11 07:44:59;;;;;;;2.53;1.10;;;;;;;24.87;62.17;98480.19;4127701;28;20235;-90
2023/09/11 07:47:01;;;;;;;1.52;1.25;;;;;;;24.15;64.56;98474.16;4124665;28;20210;-91
2023/09/11 07:49:03;;;;;;;1.80;0.80;;;;;;;24.15;64.92;98478.94;4129748;28;20204;-91
2023/09/11 07:51:05;;;;;;;3.35;1.52;;;;;;;25.06;65.08;98483.28;4157448;28;20224;-91
2023/09/11 07:53:07;;;;;;;1.58;1.27;;;;;;;25.84;61.42;98476.47;4144289;28;20683;-92
2023/09/11 07:55:09;;;;;;;1.58;1.48;;;;;;;24.82;63.16;98476.78;4127388;28;20201;-91
2023/09/11 07:57:12;;;;;;;1.58;0.98;;;;;;;25.39;63.54;98469.31;4145928;28;20220;-92
2023/09/11 07:59:14;;;;;;;8.52;2.60;;;;;;;25.26;63.40;98474.03;4128698;28;20206;-90
2023/09/11 08:01:37;;;;;;;20.40;2.00;;;;;;;25.08;62.47;98478.19;4147625;28;20244;-90
2023/09/11 08:03:39;;;;;;;3.30;1.98;;;;;;;26.43;60.11;98472.00;4128574;28;20212;-91
2023/09/11 08:05:41;;;;;;;1.52;1.25;;;;;;;25.63;61.97;98475.75;4164732;28;20200;-89
2023/09/11 08:07:45;;;;;;;1.40;1.30;;;;;;;26.45;60.17;98469.66;4145659;28;20204;-90
2023/09/11 08:09:52;;;;;;;4.13;2.90;;;;;;;26.94;59.09;98465.56;4131543;28;21171;-90
2023/09/11 08:11:54;;;;;;;2.08;1.67;;;;;;;27.17;58.41;98479.84;4127055;28;20727;-90
2023/09/11 08:13:58;;;;;;;7.05;1.10;;;;;;;26.59;57.67;98470.09;4156110;28;20200;-92
2023/09/11 08:16:00;;;;;;;2.00;1.73;;;;;;;27.25;57.92;98471.25;4130778;28;20210;-89
2023/09/11 08:18:02;;;;;;;1.17;1.00;;;;;;;27.16;59.10;98479.06;4125572;28;20202;-89
2023/09/11 08:20:04;;;;;;;1.20;0.93;;;;;;;26.86;58.37;98469.31;4161498;28;20211;-86
2023/09/11 08:22:05;;;;;;;18.63;1.20;;;;;;;27.25;56.86;98474.06;4141259;28;20267;-86
2023/09/11 08:24:07;;;;;;;2.05;1.80;;;;;;;28.11;56.43;98473.94;4142393;28;20249;-86
2023/09/11 08:26:11;;;;;;;1.38;1.25;;;;;;;27.80;55.44;98487.22;4131251;28;20205;-86
2023/09/11 08:28:13;;;;;;;2.40;0.98;;;;;;;28.10;56.55;98480.75;4121769;28;20289;-88
2023/09/11 08:30:25;;;;;;;2.95;1.35;;;;;;;27.70;56.51;98482.94;4134283;28;20210;-87
2023/09/11 08:32:28;;;;;;;1.73;1.63;;;;;;;27.89;57.92;98480.25;4136136;28;21196;-87
2023/09/11 08:34:30;;;;;;;1.60;0.70;;;;;;;28.29;55.67;98475.19;4126772;28;20264;-87
2023/09/11 08:36:32;;;;;;;1.27;1.20;;;;;;;28.90;54.70;98476.19;4133284;28;20251;-87
2023/09/11 08:38:33;;;;;;;3.38;1.90;;;;;;;29.51;53.35;98468.56;4129663;28;20208;-86
2023/09/11 08:40:35;;;;;;;4.88;0.98;;;;;;;28.96;54.55;98457.81;4141960;28;20208;-86
2023/09/11 08:42:37;;;;;;;9.05;2.22;;;;;;;29.52;53.62;98469.44;4140237;28;20204;-86
2023/09/11 08:44:38;;;;;;;2.35;1.52;;;;;;;28.81;53.74;98461.50;4120620;28;20894;-88
2023/09/11 08:46:45;;;;;;;5.97;1.50;;;;;;;28.07;56.97;98464.63;4140129;28;20209;-86
2023/09/11 08:48:49;;;;;;;7.00;1.58;;;;;;;27.48;58.54;98458.25;4144100;28;20231;-88
2023/09/11 08:50:54;;;;;;;2.00;1.52;;;;;;;28.63;57.49;98465.13;4130107;28;20244;-86
2023/09/11 08:52:58;;;;;;;0.80;0.68;;;;;;;28.29;56.44;98455.47;4146675;28;20213;-86
2023/09/11 08:55:06;;;;;;;1.42;1.33;;;;;;;28.37;56.96;98457.31;4140968;28;20200;-86
2023/09/11 08:57:11;;;;;;;4.47;2.08;;;;;;;27.82;56.82;98457.56;4127962;28;20280;-87
2023/09/11 08:59:15;;;;;;;1.45;1.15;;;;;;;28.92;56.89;98453.28;4143187;28;20216;-87
2023/09/11 09:01:18;;;;;;;2.38;2.15;;;;;;;29.37;56.13;98445.75;4124277;28;20237;-87
2023/09/11 09:03:20;;;;;;;5.13;2.13;;;;;;;29.75;56.26;98451.31;4127009;28;20217;-87
2023/09/11 09:05:24;;;;;;;1.40;1.05;;;;;;;29.95;53.93;98450.03;4131047;28;20293;-86
2023/09/11 09:07:26;;;;;;;1.13;1.05;;;;;;;29.43;53.62;98444.25;4145935;28;20240;-87
2023/09/11 09:09:28;;;;;;;1.15;1.02;;;;;;;29.21;53.97;98452.69;4148334;28;20613;-87
2023/09/11 09:11:33;;;;;;;3.55;2.00;;;;;;;29.55;56.06;98451.75;4130131;28;20257;-87
2023/09/11 09:13:37;;;;;;;1.23;1.13;;;;;;;29.70;53.89;98459.25;4123868;28;20233;-87
2023/09/11 09:15:42;;;;;;;2.92;0.98;;;;;;;29.35;54.44;98459.41;4123831;28;20654;-87
2023/09/11 09:17:43;;;;;;;1.23;0.93;;;;;;;29.79;52.66;98457.00;4141273;28;20201;-86
2023/09/11 09:19:53;;;;;;;1.25;1.08;;;;;;;29.42;52.44;98453.91;4158176;28;20696;-86
2023/09/11 09:22:21;;;;;;;6.20;1.20;;;;;;;29.78;53.51;98447.72;4136908;28;20279;-86
2023/09/11 09:24:23;;;;;;;3.03;1.85;;;;;;;30.87;51.54;98453.06;4135515;28;20436;-86
2023/09/11 09:26:25;;;;;;;2.00;1.77;;;;;;;30.28;52.54;98450.19;4136885;28;20203;-87
2023/09/11 09:28:29;;;;;;;7.35;2.42;;;;;;;30.67;52.29;98445.94;4137555;28;20200;-87
2023/09/11 09:30:41;;;;;;;1.42;1.33;;;;;;;31.66;50.65;98443.09;4151332;28;20231;-86
2023/09/11 09:32:43;;;;;;;5.47;1.20;;;;;;;31.12;51.78;98445.69;4150428;28;20227;-87
2023/09/11 09:34:53;;;;;;;1.77;1.63;;;;;;;30.68;49.15;98429.78;4116280;28;20198;-86
2023/09/11 09:36:55;;;;;;;1.63;1.10;;;;;;;30.93;50.96;98433.75;4168354;28;20286;-86
2023/09/11 09:39:06;;;;;;;1.88;1.38;;;;;;;31.55;49.21;98430.84;4147644;28;20274;-86
2023/09/11 09:41:12;;;;;;;2.22;1.00;;;;;;;31.18;49.92;98434.88;4152135;28;20243;-87
2023/09/11 09:43:18;;;;;;;3.90;1.15;;;;;;;31.48;49.77;98427.94;4120126;28;20227;-87